createdAt,value
2023-02-14T00:06:51.098Z,997.78
2023-02-14T00:18:51.560Z,997.84
2023-02-14T00:30:52.069Z,997.81
2023-02-14T00:42:52.411Z,997.75
2023-02-14T00:54:52.908Z,997.72
2023-02-14T01:06:53.357Z,997.66
2023-02-14T01:18:53.828Z,997.72
2023-02-14T01:30:54.279Z,997.66
2023-02-14T01:42:54.717Z,997.52
2023-02-14T01:54:55.205Z,997.37
2023-02-14T02:06:55.639Z,997.32
2023-02-14T02:18:56.024Z,997.13
2023-02-14T02:30:56.758Z,997.17
2023-02-14T02:42:56.924Z,997.16
2023-02-14T02:54:57.622Z,997.16
2023-02-14T03:06:57.862Z,997.14
2023-02-14T03:18:58.343Z,997.08
2023-02-14T03:30:59.198Z,996.95
2023-02-14T03:42:59.207Z,997.00
2023-02-14T03:54:59.684Z,996.88
2023-02-14T04:07:00.149Z,996.83
2023-02-14T04:19:00.587Z,996.66
2023-02-14T04:31:01.484Z,996.63
2023-02-14T04:43:01.482Z,996.59
2023-02-14T04:55:01.953Z,996.45
2023-02-14T05:07:02.371Z,996.31
2023-02-14T05:19:02.880Z,996.37
2023-02-14T05:31:03.630Z,996.38
2023-02-14T05:43:03.732Z,996.34
2023-02-14T05:55:04.202Z,996.38
2023-02-14T06:07:04.647Z,996.26
2023-02-14T06:19:05.102Z,996.33
2023-02-14T06:31:05.681Z,996.40
2023-02-14T06:43:06.010Z,996.53
2023-02-14T06:55:06.473Z,996.66
2023-02-14T07:07:06.888Z,996.68
2023-02-14T07:19:07.365Z,996.59
2023-02-14T07:31:07.846Z,996.57
2023-02-14T07:43:08.283Z,996.68
2023-02-14T07:55:08.709Z,996.60
2023-02-14T08:07:09.150Z,996.60
2023-02-14T08:19:09.605Z,996.63
2023-02-14T08:31:10.043Z,996.57
2023-02-14T08:43:10.520Z,996.66
2023-02-14T08:55:10.966Z,996.71
2023-02-14T09:07:11.421Z,996.82
2023-02-14T09:19:11.924Z,996.75
2023-02-14T09:31:12.436Z,996.84
2023-02-14T09:43:12.773Z,996.86
2023-02-14T09:55:13.530Z,996.88
2023-02-14T10:07:13.732Z,996.71
2023-02-14T10:19:14.107Z,996.78
2023-02-14T10:31:14.750Z,996.80
2023-02-14T10:43:14.984Z,996.71
2023-02-14T10:55:30.069Z,996.56
2023-02-14T11:07:15.936Z,996.39
2023-02-14T11:19:16.372Z,996.27
2023-02-14T11:31:16.923Z,996.20
2023-02-14T11:43:17.393Z,996.03
2023-02-14T11:55:17.746Z,996.04
2023-02-14T12:07:18.203Z,996.05
2023-02-14T12:19:18.681Z,995.90
2023-02-14T12:31:19.226Z,995.87
2023-02-14T12:43:19.592Z,995.79
2023-02-14T12:55:19.994Z,995.78
2023-02-14T13:07:20.446Z,995.74
2023-02-14T13:19:20.927Z,995.64
2023-02-14T13:31:21.442Z,995.70
2023-02-14T13:43:21.829Z,995.76
2023-02-14T13:55:22.241Z,995.74
2023-02-14T14:07:22.743Z,995.70
2023-02-14T14:19:23.136Z,995.59
2023-02-14T14:31:23.666Z,995.58
2023-02-14T14:43:24.200Z,995.51
2023-02-14T14:55:24.584Z,995.48
2023-02-14T15:07:24.992Z,995.46
2023-02-14T15:19:25.435Z,995.44
2023-02-14T15:31:28.226Z,995.35
2023-02-14T15:43:26.349Z,995.41
2023-02-14T15:55:26.798Z,995.43
2023-02-14T16:07:27.257Z,995.47
2023-02-14T16:19:27.687Z,995.51
2023-02-14T16:31:28.269Z,995.64
2023-02-14T16:43:28.548Z,995.74
2023-02-14T16:55:29.083Z,995.78
2023-02-14T17:07:29.499Z,995.81
2023-02-14T17:19:29.948Z,995.90
2023-02-14T17:31:30.512Z,995.84
2023-02-14T17:43:30.869Z,995.84
2023-02-14T17:55:31.309Z,995.87
2023-02-14T18:07:31.764Z,995.88
2023-02-14T18:19:32.218Z,995.73
2023-02-14T18:31:32.760Z,995.73
2023-02-14T18:43:33.134Z,995.75
2023-02-14T18:55:33.620Z,995.71
2023-02-14T19:07:34.058Z,995.73
2023-02-14T19:19:34.515Z,995.62
2023-02-14T19:31:35.063Z,995.63
2023-02-14T19:43:35.420Z,995.57
2023-02-14T19:55:35.822Z,995.51
2023-02-14T20:07:36.277Z,995.60
2023-02-14T20:19:36.707Z,995.53
2023-02-14T20:31:37.410Z,995.50
2023-02-14T20:43:37.619Z,995.51
2023-02-14T20:55:38.084Z,995.41
2023-02-14T21:07:38.565Z,995.35
2023-02-14T21:19:39.054Z,995.39
2023-02-14T21:31:39.659Z,995.27
2023-02-14T21:43:39.926Z,995.44
2023-02-14T21:55:40.326Z,995.37
2023-02-14T22:07:40.834Z,995.27
2023-02-14T22:19:41.228Z,995.31
2023-02-14T22:31:41.865Z,995.29
2023-02-14T22:43:42.134Z,995.33
2023-02-14T22:55:42.635Z,995.26
2023-02-14T23:07:43.076Z,995.16
2023-02-14T23:19:43.500Z,995.10
2023-02-14T23:31:44.049Z,995.11
2023-02-14T23:43:44.412Z,995.03
2023-02-14T23:55:44.881Z,994.92
